UAE55J OMDB-KIAH
Flight info
| Callsign | UAE55J |
|---|---|
| Flight time | N/A |
| Altitude | 32000 |
| Route | DAVMO M318 GABKO M317 ROTAL P574 SYZ P550 YSJ/N0510F320 P550 DASIS UL746 GOKPA/N0500F340 UL746 ODERO DCT LAPKA DCT ETEPA DCT SAT DCT KENIN DCT LENOV L623 ADVAB L619 DENKO L996 VAVUN M602 BINKA DCT MASOR DCT NEDIK DCT VAXIT/N0492F360 DCT ARTEX DCT LAMRO DCT ATSIX/M086F370 DCT 62N020W 64N030W 64N040W 63N050W DCT MAXAR/N0497F380 DCT SEMTO DCT 56N076W DCT PIGLA DCT 52N085W DCT DURIL DCT LIBUK DCT DLH/N0491F400 J21 ICT/N0481F390 J21 IRW/N0487F400 J23 BATIK/N0484F390 J23 MQP DRLLR5 |
| Aircraft | A388/J-SADE2E3FGHIJ3J4J5M1RWXY/LB1D1 |
Departure
| Time | N/A |
|---|---|
| Airport | Dubai International Airport (OMDB) |
Arrival
| Time | 2025-09-10 16:07 |
|---|---|
| Airport | George Bush Intercontinental Airport (KIAH) |
| Time | Latitude | Longitude | Altitude | Speed | Heading |
|---|---|---|---|---|---|
| 2025-09-10 15:59 | 30.09372 | -95.15999 | 7785 ft | 231 kts | 88° |
| 2025-09-10 16:00 | 30.09446 | -95.12342 | 6847 ft | 227 kts | 88° |
| 2025-09-10 16:00 | 30.09512 | -95.08740 | 5993 ft | 224 kts | 89° |
| 2025-09-10 16:01 | 30.08928 | -95.05311 | 5227 ft | 225 kts | 129° |
| 2025-09-10 16:01 | 30.06086 | -95.04220 | 4702 ft | 229 kts | 190° |
| 2025-09-10 16:02 | 30.03001 | -95.05171 | 4118 ft | 229 kts | 193° |
| 2025-09-10 16:02 | 30.00867 | -95.07587 | 3978 ft | 233 kts | 256° |
| 2025-09-10 16:03 | 30.00735 | -95.11355 | 3701 ft | 237 kts | 270° |
| 2025-09-10 16:03 | 30.00727 | -95.13246 | 3374 ft | 239 kts | 269° |
| 2025-09-10 16:04 | 30.00726 | -95.19034 | 2443 ft | 244 kts | 269° |
| 2025-09-10 16:04 | 30.00723 | -95.22711 | 1855 ft | 236 kts | 270° |
| 2025-09-10 16:05 | 30.00722 | -95.26028 | 1298 ft | 180 kts | 270° |
| 2025-09-10 16:05 | 30.00716 | -95.28761 | 871 ft | 169 kts | 271° |
| 2025-09-10 16:06 | 30.00713 | -95.34056 | 119 ft | 139 kts | 271° |
| 2025-09-10 16:07 | 30.00717 | -95.35169 | 112 ft | 31 kts | 269° |
| 2025-09-10 16:07 | 30.00657 | -95.35448 | 110 ft | 42 kts | 237° |
| 2025-09-10 16:08 | 29.99967 | -95.35487 | 111 ft | 34 kts | 177° |
| 2025-09-10 16:08 | 29.99513 | -95.35482 | 111 ft | 33 kts | 180° |
| 2025-09-10 16:09 | 29.99092 | -95.35426 | 109 ft | 28 kts | 106° |
| 2025-09-10 16:09 | 29.99089 | -95.34962 | 109 ft | 31 kts | 89° |
| 2025-09-10 16:09 | 29.99086 | -95.34714 | 109 ft | 32 kts | 92° |
| 2025-09-10 16:10 | 29.99093 | -95.33926 | 112 ft | 34 kts | 91° |
| 2025-09-10 16:11 | 29.99034 | -95.33711 | 109 ft | 15 kts | 154° |
| 2025-09-10 16:11 | 29.98926 | -95.33677 | 110 ft | 18 kts | 156° |
| 2025-09-10 16:12 | 29.98838 | -95.33613 | 110 ft | 0 kts | 146° |